Time;durP1;ratioP1;P1;durP2;ratioP2;P2;SDS_P1;SDS_P2;PMS_P1;PMS_P2;Temp;Humidity;BMP_temperature;BMP_pressure;BME280_temperature;BME280_humidity;BME280_pressure;Samples;Min_cycle;Max_cycle;Signal;HPM_P1;HPM_P2
2021/05/18 00:02:04;;;;;;;18.25;6.55;;;12.70;99.90;;;;;;5065139;28;20201;-77
2021/05/18 00:04:30;;;;;;;14.35;7.75;;;12.70;99.90;;;;;;5066550;28;20244;-77
2021/05/18 00:06:57;;;;;;;13.82;6.72;;;12.80;99.90;;;;;;5071491;28;20231;-77
2021/05/18 00:12:17;;;;;;;9.55;5.60;;;12.70;99.90;;;;;;5015726;28;20199;-77
2021/05/18 00:14:43;;;;;;;10.85;6.57;;;12.70;99.90;;;;;;5019064;28;20221;-77
2021/05/18 00:17:09;;;;;;;12.23;6.13;;;12.70;99.90;;;;;;5018933;28;20212;-77
2021/05/18 00:19:36;;;;;;;10.60;5.82;;;12.70;99.90;;;;;;5016340;28;20203;-76
2021/05/18 00:22:02;;;;;;;12.82;5.95;;;12.70;99.90;;;;;;5015478;28;20246;-77
2021/05/18 00:24:29;;;;;;;12.77;7.18;;;12.70;99.90;;;;;;5008632;28;20232;-77
2021/05/18 00:26:56;;;;;;;11.25;5.78;;;12.60;99.90;;;;;;5013955;28;20208;-77
2021/05/18 00:29:22;;;;;;;9.80;5.70;;;12.60;99.90;;;;;;5019384;28;20210;-77
2021/05/18 00:31:49;;;;;;;11.52;7.43;;;12.60;99.90;;;;;;5007941;28;20207;-77
2021/05/18 00:34:15;;;;;;;13.05;6.80;;;12.60;99.90;;;;;;5014834;28;20307;-76
2021/05/18 00:36:41;;;;;;;24.58;8.93;;;12.60;99.90;;;;;;5016626;28;20290;-77
2021/05/18 00:39:08;;;;;;;9.40;7.05;;;12.50;99.90;;;;;;5020693;28;20211;-77
2021/05/18 00:41:35;;;;;;;15.35;6.75;;;12.40;99.90;;;;;;5010020;28;20204;-77
2021/05/18 00:44:02;;;;;;;14.40;7.22;;;12.30;99.90;;;;;;5019964;28;20239;-77
2021/05/18 00:46:29;;;;;;;11.80;7.72;;;12.20;99.90;;;;;;5015580;28;20204;-77
2021/05/18 00:48:58;;;;;;;15.55;7.65;;;12.20;99.90;;;;;;5053049;28;20228;-77
2021/05/18 00:51:25;;;;;;;12.05;6.78;;;12.30;99.90;;;;;;5050850;28;20209;-77
2021/05/18 00:53:53;;;;;;;14.05;7.78;;;12.30;99.90;;;;;;5063663;28;20205;-77
2021/05/18 00:56:32;;;;;;;15.98;8.07;;;12.30;99.90;;;;;;5055778;28;20198;-77
2021/05/18 00:59:01;;;;;;;18.52;8.15;;;12.30;99.90;;;;;;5063083;28;20202;-77
2021/05/18 01:01:27;;;;;;;13.95;7.57;;;12.30;99.90;;;;;;5051303;28;20202;-77
2021/05/18 01:03:55;;;;;;;13.05;7.55;;;12.20;99.90;;;;;;5059249;28;20230;-77
2021/05/18 01:06:25;;;;;;;15.68;7.68;;;12.30;99.90;;;;;;5071225;28;20202;-78
2021/05/18 01:08:55;;;;;;;13.10;8.20;;;12.30;99.90;;;;;;5067457;28;20265;-78
2021/05/18 01:11:23;;;;;;;10.20;8.07;;;12.30;99.90;;;;;;5059492;28;20207;-78
2021/05/18 01:13:55;;;;;;;14.27;8.73;;;12.40;99.90;;;;;;5055273;28;20202;-78
2021/05/18 01:16:23;;;;;;;11.00;8.10;;;12.40;99.90;;;;;;5058559;28;20225;-78
2021/05/18 01:18:50;;;;;;;17.13;8.45;;;12.40;99.90;;;;;;5053848;28;20256;-77
2021/05/18 01:21:17;;;;;;;10.68;7.93;;;12.40;99.90;;;;;;5051788;28;20210;-78
2021/05/18 01:23:45;;;;;;;19.00;8.10;;;12.40;99.90;;;;;;5066549;28;20231;-77
2021/05/18 01:26:13;;;;;;;14.88;8.30;;;12.40;99.90;;;;;;5062399;28;20210;-77
2021/05/18 01:28:40;;;;;;;13.77;8.32;;;12.40;99.90;;;;;;5058518;28;20202;-77
2021/05/18 01:31:08;;;;;;;16.08;8.35;;;12.50;99.90;;;;;;5065805;28;20202;-78
2021/05/18 01:33:35;;;;;;;16.90;7.45;;;12.50;99.90;;;;;;5056816;28;20199;-77
2021/05/18 01:36:08;;;;;;;10.07;8.55;;;12.50;99.90;;;;;;5054106;28;20228;-77
2021/05/18 01:38:40;;;;;;;12.55;7.53;;;12.60;99.90;;;;;;5057482;28;20206;-78
2021/05/18 01:43:52;;;;;;;14.20;8.65;;;12.60;99.90;;;;;;5063114;28;20320;-78
2021/05/18 01:46:21;;;;;;;17.20;8.05;;;12.60;99.90;;;;;;5066231;28;20213;-77
2021/05/18 01:48:57;;;;;;;15.50;7.75;;;12.70;99.90;;;;;;5059884;28;20209;-77
2021/05/18 01:51:25;;;;;;;20.70;8.48;;;12.70;99.90;;;;;;5065934;28;20201;-77
2021/05/18 01:53:53;;;;;;;13.48;8.95;;;12.60;99.90;;;;;;5056499;28;20214;-78
2021/05/18 01:56:35;;;;;;;12.82;8.90;;;12.60;99.90;;;;;;5064850;28;20209;-78
2021/05/18 01:59:07;;;;;;;15.32;9.77;;;12.60;99.90;;;;;;5053259;28;20202;-78
2021/05/18 02:01:33;;;;;;;14.90;10.45;;;12.60;99.90;;;;;;5056917;28;20207;-77
2021/05/18 02:04:01;;;;;;;17.67;10.75;;;12.60;99.90;;;;;;5056497;28;20233;-77
2021/05/18 02:06:27;;;;;;;16.60;10.10;;;12.60;99.90;;;;;;5051971;28;20202;-77
2021/05/18 02:08:55;;;;;;;16.83;10.27;;;12.50;99.90;;;;;;5070564;28;20198;-77
2021/05/18 02:11:22;;;;;;;16.50;11.25;;;12.50;99.90;;;;;;5061088;28;20198;-77
2021/05/18 02:13:51;;;;;;;17.67;11.32;;;12.50;99.90;;;;;;5062880;28;20199;-77
2021/05/18 02:16:20;;;;;;;16.25;12.20;;;12.40;99.90;;;;;;5053631;28;20205;-77
2021/05/18 02:21:41;;;;;;;17.15;11.75;;;12.50;99.90;;;;;;5059800;28;20203;-77
2021/05/18 02:26:54;;;;;;;20.02;13.52;;;12.30;99.90;;;;;;5058655;28;20710;-77
2021/05/18 02:29:20;;;;;;;19.73;13.80;;;12.30;99.90;;;;;;5050831;28;20199;-77
2021/05/18 02:31:49;;;;;;;22.20;13.55;;;12.40;99.90;;;;;;5059256;28;20206;-77
2021/05/18 02:34:15;;;;;;;19.90;13.10;;;12.40;99.90;;;;;;5050713;28;20986;-77
2021/05/18 02:36:42;;;;;;;19.15;13.73;;;12.40;99.90;;;;;;5056368;28;20218;-77
2021/05/18 02:39:09;;;;;;;22.63;14.10;;;12.40;99.90;;;;;;5064686;28;20198;-77
2021/05/18 02:41:36;;;;;;;25.42;12.82;;;12.50;99.90;;;;;;5057863;28;20203;-77
2021/05/18 02:49:28;;;;;;;24.95;14.57;;;12.60;99.90;;;;;;5059557;28;20201;-77
2021/05/18 02:51:55;;;;;;;24.05;14.70;;;12.60;99.90;;;;;;5066818;28;20201;-77
2021/05/18 02:54:37;;;;;;;19.85;13.82;;;12.70;99.90;;;;;;5065228;28;20638;-77
2021/05/18 02:57:06;;;;;;;19.73;13.98;;;12.70;99.90;;;;;;5063732;28;20201;-77
2021/05/18 02:59:32;;;;;;;20.60;14.90;;;12.60;99.90;;;;;;5059598;28;20214;-77
2021/05/18 03:02:00;;;;;;;22.42;14.07;;;12.70;99.90;;;;;;5058117;28;20202;-77
2021/05/18 03:04:28;;;;;;;21.38;14.82;;;12.70;99.90;;;;;;5053179;28;20242;-77
2021/05/18 03:06:55;;;;;;;24.52;14.80;;;12.70;99.90;;;;;;5053053;28;20226;-77
2021/05/18 03:09:23;;;;;;;24.05;15.40;;;12.70;99.90;;;;;;5075924;28;20200;-77
2021/05/18 03:11:55;;;;;;;19.75;14.95;;;12.70;99.90;;;;;;5058391;28;20202;-78
2021/05/18 03:14:22;;;;;;;16.85;13.15;;;12.80;99.90;;;;;;5062907;28;20222;-77
2021/05/18 03:19:37;;;;;;;22.75;14.07;;;12.90;99.90;;;;;;5056987;28;20536;-78
2021/05/18 03:30:21;;;;;;;26.60;15.68;;;12.90;99.90;;;;;;5064062;28;20206;-78
2021/05/18 03:35:32;;;;;;;23.42;15.82;;;12.90;99.90;;;;;;5075589;28;20232;-78
2021/05/18 03:40:51;;;;;;;29.27;19.67;;;12.80;99.90;;;;;;5062559;28;20425;-78
2021/05/18 03:48:54;;;;;;;24.17;16.33;;;12.70;99.90;;;;;;5056745;28;20214;-78
2021/05/18 03:54:11;;;;;;;25.38;15.57;;;12.70;99.90;;;;;;5065639;28;20232;-78
2021/05/18 04:05:10;;;;;;;16.30;11.60;;;12.80;99.90;;;;;;5061497;28;20248;-78
2021/05/18 04:10:38;;;;;;;17.25;12.82;;;12.70;99.90;;;;;;5071344;28;20204;-78
2021/05/18 04:13:17;;;;;;;15.68;10.18;;;12.60;99.90;;;;;;5081127;28;20236;-78
2021/05/18 04:24:22;;;;;;;15.82;9.63;;;12.50;99.90;;;;;;5063960;28;20209;-77
2021/05/18 04:27:05;;;;;;;16.95;11.63;;;12.60;99.90;;;;;;5070163;28;20213;-78
2021/05/18 04:43:32;;;;;;;14.07;8.88;;;12.70;99.90;;;;;;5068797;28;20284;-78
2021/05/18 04:49:36;;;;;;;8.55;7.60;;;12.50;99.90;;;;;;5058179;28;20201;-78
2021/05/18 04:52:06;;;;;;;9.80;8.38;;;12.50;99.90;;;;;;5056704;28;20198;-78
2021/05/18 05:00:04;;;;;;;8.98;8.05;;;12.50;99.90;;;;;;5066364;28;20213;-78
2021/05/18 05:08:13;;;;;;;14.48;9.43;;;12.70;99.90;;;;;;4989821;28;20207;-79
2021/05/18 05:16:08;;;;;;;14.88;11.05;;;12.80;99.90;;;;;;5020941;28;20214;-78
2021/05/18 05:18:35;;;;;;;13.55;7.93;;;12.80;99.90;;;;;;5019759;28;20203;-77
2021/05/18 05:21:02;;;;;;;12.13;8.50;;;12.80;99.90;;;;;;5021409;28;20203;-78
2021/05/18 05:23:29;;;;;;;14.80;8.38;;;12.80;99.90;;;;;;5023183;28;20207;-78
2021/05/18 05:25:55;;;;;;;14.07;9.10;;;12.70;99.90;;;;;;5009193;28;20229;-78
2021/05/18 05:28:22;;;;;;;16.27;9.85;;;12.60;99.90;;;;;;5020823;28;20200;-78
2021/05/18 05:30:48;;;;;;;20.00;9.82;;;12.60;99.90;;;;;;5025042;28;20203;-78
2021/05/18 05:33:15;;;;;;;20.83;10.18;;;12.60;99.90;;;;;;5011601;28;20210;-77
2021/05/18 05:35:41;;;;;;;15.68;10.38;;;12.60;99.90;;;;;;5013789;28;20224;-78
2021/05/18 05:38:08;;;;;;;20.67;10.15;;;12.60;99.90;;;;;;5016441;28;20210;-78
2021/05/18 05:40:35;;;;;;;14.48;9.18;;;12.70;99.90;;;;;;5057261;28;20197;-78
2021/05/18 05:43:02;;;;;;;16.45;10.00;;;12.70;99.90;;;;;;5052245;28;20203;-78
2021/05/18 05:45:28;;;;;;;15.40;9.68;;;12.80;99.90;;;;;;5070952;28;20232;-78
2021/05/18 05:47:55;;;;;;;16.23;9.43;;;12.80;99.90;;;;;;5068564;28;20742;-78
2021/05/18 05:50:21;;;;;;;15.85;10.80;;;12.80;99.90;;;;;;5071496;28;20201;-78
2021/05/18 05:52:47;;;;;;;16.52;10.30;;;12.80;99.90;;;;;;5054469;28;20205;-77
2021/05/18 05:55:15;;;;;;;16.63;10.00;;;12.80;99.90;;;;;;5050831;28;20206;-77
2021/05/18 05:57:41;;;;;;;19.05;10.35;;;12.80;99.90;;;;;;5049416;28;20202;-77
2021/05/18 06:00:10;;;;;;;21.42;11.10;;;12.90;99.90;;;;;;5054716;28;20202;-77
2021/05/18 06:02:37;;;;;;;15.07;9.93;;;13.00;99.90;;;;;;5062320;28;20231;-77
2021/05/18 06:05:04;;;;;;;22.00;12.65;;;13.00;99.90;;;;;;5049537;28;20231;-77
2021/05/18 06:07:31;;;;;;;17.88;12.50;;;12.90;99.90;;;;;;5048779;28;20202;-78
2021/05/18 06:10:01;;;;;;;25.05;12.63;;;12.80;99.90;;;;;;5048581;28;20216;-77
2021/05/18 06:12:44;;;;;;;16.95;11.88;;;12.70;99.90;;;;;;5056005;28;20208;-77
2021/05/18 06:34:52;;;;;;;29.77;15.10;;;12.90;99.90;;;;;;5023612;28;20262;-77
2021/05/18 06:37:27;;;;;;;28.33;14.80;;;12.90;99.90;;;;;;5028924;28;20207;-77
2021/05/18 06:42:42;;;;;;;28.13;14.77;;;13.10;99.90;;;;;;5017093;28;20242;-77
2021/05/18 06:47:55;;;;;;;26.65;17.13;;;13.20;99.90;;;;;;5025741;28;20246;-77
2021/05/18 06:50:28;;;;;;;30.75;16.58;;;13.20;99.90;;;;;;5027563;28;20207;-77
2021/05/18 06:52:55;;;;;;;28.58;16.38;;;13.20;99.90;;;;;;5026151;28;20291;-77
2021/05/18 06:55:26;;;;;;;26.25;15.40;;;13.30;99.90;;;;;;5023525;28;20738;-77
2021/05/18 06:57:59;;;;;;;27.30;15.73;;;13.40;99.90;;;;;;5050788;28;20202;-77
2021/05/18 07:00:26;;;;;;;31.45;16.55;;;13.40;99.90;;;;;;5054538;28;20205;-77
2021/05/18 07:02:55;;;;;;;34.22;16.67;;;13.50;99.90;;;;;;5052675;28;20241;-77
2021/05/18 07:05:29;;;;;;;29.90;16.23;;;13.50;99.90;;;;;;5071637;28;20234;-77
2021/05/18 07:08:02;;;;;;;32.33;17.63;;;13.50;99.90;;;;;;5062270;28;20202;-77
2021/05/18 07:10:28;;;;;;;31.58;17.02;;;13.40;99.90;;;;;;5059832;28;20248;-77
2021/05/18 07:12:55;;;;;;;25.55;16.45;;;13.40;99.90;;;;;;5060489;28;20203;-77
2021/05/18 07:15:21;;;;;;;30.80;15.63;;;13.30;99.90;;;;;;5066371;28;20202;-77
2021/05/18 07:17:48;;;;;;;26.70;16.95;;;13.30;99.90;;;;;;5060607;28;20605;-77
2021/05/18 07:20:15;;;;;;;27.92;16.73;;;13.30;99.90;;;;;;5066758;28;20198;-77
2021/05/18 07:22:41;;;;;;;28.42;17.88;;;13.30;99.90;;;;;;5058715;28;20585;-77
2021/05/18 07:25:16;;;;;;;40.95;18.90;;;13.30;99.90;;;;;;5058135;28;20218;-77
2021/05/18 07:27:42;;;;;;;34.10;19.17;;;13.40;99.90;;;;;;5061795;28;20204;-78
2021/05/18 07:30:11;;;;;;;38.65;18.23;;;13.50;99.90;;;;;;5063718;28;20200;-78
2021/05/18 07:32:37;;;;;;;31.40;18.52;;;13.50;99.90;;;;;;5052184;28;20207;-77
2021/05/18 07:35:07;;;;;;;33.70;18.27;;;13.60;99.90;;;;;;5056741;28;20216;-78
2021/05/18 07:37:33;;;;;;;28.13;17.20;;;13.70;99.90;;;;;;5061676;28;20253;-77
2021/05/18 07:40:00;;;;;;;44.47;17.10;;;13.60;99.90;;;;;;5054407;28;20215;-77
2021/05/18 07:42:27;;;;;;;31.85;18.73;;;13.70;99.90;;;;;;5070716;28;20203;-78
2021/05/18 07:44:53;;;;;;;34.92;18.13;;;13.60;99.90;;;;;;5050737;28;20238;-78
2021/05/18 07:47:22;;;;;;;31.17;16.98;;;13.50;99.90;;;;;;5059718;28;20276;-78
2021/05/18 07:49:49;;;;;;;25.13;16.60;;;13.50;99.90;;;;;;5056172;28;20206;-77
2021/05/18 08:05:53;;;;;;;34.38;17.30;;;13.50;99.90;;;;;;5067482;28;20236;-78
2021/05/18 08:08:20;;;;;;;32.08;18.15;;;13.40;99.90;;;;;;5056025;28;20202;-78
2021/05/18 08:10:49;;;;;;;31.33;19.90;;;13.40;99.90;;;;;;5065503;28;20208;-78
2021/05/18 08:13:20;;;;;;;34.63;19.60;;;13.60;99.90;;;;;;5059840;28;20212;-78
2021/05/18 08:21:56;;;;;;;26.98;17.27;;;13.60;99.90;;;;;;5056377;28;20653;-78
2021/05/18 10:34:49;;;;;;;14.52;11.93;;;17.00;99.90;;;;;;5090620;28;20598;-77
2021/05/18 10:37:39;;;;;;;14.95;10.85;;;16.80;99.90;;;;;;5092293;28;20242;-77
2021/05/18 10:40:34;;;;;;;11.90;10.13;;;16.30;99.90;;;;;;5079272;28;20201;-76
2021/05/18 10:43:28;;;;;;;12.65;8.60;;;15.80;99.90;;;;;;5080952;28;20224;-77
2021/05/18 10:46:10;;;;;;;13.88;9.30;;;15.40;99.90;;;;;;5086890;28;20212;-76
2021/05/18 10:49:09;;;;;;;11.63;9.48;;;15.20;99.90;;;;;;5080532;28;20193;-76
2021/05/18 10:51:54;;;;;;;14.32;9.05;;;15.10;99.90;;;;;;5080937;28;20209;-76
2021/05/18 10:54:25;;;;;;;15.23;9.98;;;15.00;99.90;;;;;;5080708;28;20217;-76
2021/05/18 10:57:27;;;;;;;14.98;9.18;;;15.00;99.90;;;;;;5080329;28;20231;-77
2021/05/18 10:59:56;;;;;;;14.00;9.88;;;15.00;99.90;;;;;;5109802;28;20572;-78
2021/05/18 11:02:29;;;;;;;12.27;8.18;;;14.90;99.90;;;;;;5109413;28;20200;-78
2021/05/18 11:04:59;;;;;;;18.38;8.95;;;15.10;99.90;;;;;;5103402;28;20209;-76
2021/05/18 11:07:31;;;;;;;15.77;9.07;;;15.30;99.90;;;;;;5108312;28;20208;-78
2021/05/18 11:09:59;;;;;;;11.88;9.05;;;15.40;99.90;;;;;;5105680;28;20212;-78
2021/05/18 11:12:26;;;;;;;12.75;7.82;;;15.60;99.90;;;;;;5103715;28;20201;-78
2021/05/18 11:15:04;;;;;;;11.50;8.10;;;15.70;99.90;;;;;;5097901;28;20201;-78
2021/05/18 11:17:41;;;;;;;15.77;8.88;;;15.90;99.90;;;;;;5091972;28;20287;-78
2021/05/18 11:20:23;;;;;;;15.38;9.40;;;16.00;99.90;;;;;;5097584;28;20212;-78
2021/05/18 11:25:41;;;;;;;14.05;10.05;;;16.10;99.90;;;;;;5094932;28;20203;-77
2021/05/18 11:28:23;;;;;;;15.52;9.35;;;16.10;99.90;;;;;;5093650;28;20204;-77
2021/05/18 11:30:53;;;;;;;12.57;8.90;;;16.00;99.90;;;;;;5096291;28;20199;-78
2021/05/18 11:38:50;;;;;;;15.25;8.68;;;16.00;99.90;;;;;;5095648;28;20219;-77
2021/05/18 11:41:19;;;;;;;12.98;9.85;;;16.30;99.90;;;;;;5091738;28;20192;-78
2021/05/18 11:43:49;;;;;;;15.05;10.02;;;16.40;99.90;;;;;;5099401;28;20228;-78
2021/05/18 11:46:16;;;;;;;18.33;10.20;;;16.40;99.90;;;;;;5090199;28;20196;-78
2021/05/18 11:49:00;;;;;;;14.90;9.32;;;16.40;99.90;;;;;;5093321;28;20205;-77
2021/05/18 11:51:29;;;;;;;18.40;10.75;;;16.40;99.90;;;;;;5090998;28;20197;-78
2021/05/18 11:56:47;;;;;;;12.43;10.23;;;16.80;99.90;;;;;;5088983;28;20220;-77
2021/05/18 12:02:33;;;;;;;16.13;10.73;;;17.10;99.90;;;;;;5089327;28;20223;-77
2021/05/18 12:05:05;;;;;;;14.68;9.75;;;17.20;99.90;;;;;;5052362;28;20206;-77
2021/05/18 12:07:33;;;;;;;12.35;10.07;;;17.20;99.90;;;;;;5057042;28;20206;-77
2021/05/18 12:09:59;;;;;;;15.18;11.05;;;17.20;99.90;;;;;;5057879;28;20202;-77
2021/05/18 12:12:26;;;;;;;14.07;10.23;;;17.10;99.90;;;;;;5055312;28;20185;-79
2021/05/18 12:14:54;;;;;;;17.83;10.80;;;17.10;99.90;;;;;;5060444;28;20201;-77
2021/05/18 12:17:33;;;;;;;16.73;11.05;;;17.20;99.90;;;;;;5051176;28;20229;-77
2021/05/18 12:22:43;;;;;;;14.10;11.43;;;17.20;99.90;;;;;;5049145;28;20280;-76
2021/05/18 12:25:11;;;;;;;11.50;8.00;;;17.20;99.90;;;;;;5048367;28;20198;-77
2021/05/18 12:27:44;;;;;;;10.73;7.53;;;16.80;99.90;;;;;;5051146;28;20209;-77
2021/05/18 12:30:12;;;;;;;6.13;4.57;;;16.10;99.90;;;;;;5048036;28;20528;-76
2021/05/18 12:32:47;;;;;;;8.70;5.18;;;15.70;99.90;;;;;;5048701;28;20202;-77
2021/05/18 12:35:18;;;;;;;8.93;4.95;;;15.30;99.90;;;;;;5052763;28;20208;-76
2021/05/18 12:37:48;;;;;;;6.13;4.50;;;15.00;99.90;;;;;;5048115;28;20210;-77
2021/05/18 12:40:18;;;;;;;5.43;3.50;;;15.00;99.90;;;;;;5056212;28;20194;-76
2021/05/18 12:42:46;;;;;;;7.72;3.83;;;14.90;99.90;;;;;;5052292;28;20201;-77
2021/05/18 12:45:20;;;;;;;5.55;5.05;;;14.70;99.90;;;;;;5047044;28;20720;-77
2021/05/18 12:47:51;;;;;;;8.40;5.38;;;14.70;99.90;;;;;;5047396;28;20210;-77
2021/05/18 12:50:19;;;;;;;7.88;5.47;;;14.60;99.90;;;;;;5047322;28;20229;-77
2021/05/18 12:52:49;;;;;;;6.78;5.93;;;14.60;99.90;;;;;;5046907;28;20885;-76
2021/05/18 12:55:22;;;;;;;6.20;5.70;;;14.50;99.90;;;;;;5051320;28;20203;-76
2021/05/18 12:57:51;;;;;;;9.95;6.93;;;14.50;99.90;;;;;;5047471;28;20598;-77
2021/05/18 13:00:24;;;;;;;9.68;7.05;;;14.50;99.90;;;;;;5047311;28;20206;-77
2021/05/18 13:02:51;;;;;;;10.20;7.60;;;14.50;99.90;;;;;;5051402;28;20206;-77
2021/05/18 13:05:23;;;;;;;8.40;7.10;;;14.40;99.90;;;;;;5090014;28;20223;-77
2021/05/18 13:08:09;;;;;;;12.43;8.27;;;14.50;99.90;;;;;;5090824;28;20504;-77
2021/05/18 13:10:50;;;;;;;9.77;7.32;;;14.50;99.90;;;;;;5096831;28;20200;-77
2021/05/18 13:13:17;;;;;;;8.82;6.97;;;14.60;99.90;;;;;;5098002;28;20235;-77
2021/05/18 13:15:44;;;;;;;8.52;6.97;;;14.70;99.90;;;;;;5096034;28;20205;-76
2021/05/18 13:18:12;;;;;;;9.13;7.00;;;14.80;99.90;;;;;;5091403;28;20299;-77
2021/05/18 13:23:31;;;;;;;13.63;10.10;;;14.80;99.90;;;;;;5095924;28;20749;-76
2021/05/18 13:28:42;;;;;;;8.43;7.50;;;15.10;99.90;;;;;;5090350;28;20227;-77
2021/05/18 13:31:09;;;;;;;8.98;7.18;;;15.20;99.90;;;;;;5087704;28;20203;-77
2021/05/18 13:33:36;;;;;;;9.13;6.88;;;15.30;99.90;;;;;;5098250;28;20211;-76
2021/05/18 13:36:02;;;;;;;6.93;6.07;;;15.40;99.90;;;;;;5089491;28;20201;-76
2021/05/18 13:38:33;;;;;;;7.55;6.30;;;15.60;99.90;;;;;;5085657;28;20201;-76
2021/05/18 13:41:00;;;;;;;7.28;6.57;;;15.70;99.90;;;;;;5086784;28;20254;-77
2021/05/18 13:43:26;;;;;;;8.60;6.78;;;15.90;99.90;;;;;;5088100;28;20216;-76
2021/05/18 13:54:00;;;;;;;9.80;7.10;;;16.20;99.90;;;;;;5093417;28;20211;-77
2021/05/18 14:01:49;;;;;;;6.55;5.90;;;16.70;99.90;;;;;;5085898;28;20867;-75
2021/05/18 14:04:16;;;;;;;8.00;5.63;;;16.70;99.90;;;;;;5088019;28;20240;-77
2021/05/18 14:07:12;;;;;;;7.05;6.45;;;16.70;99.90;;;;;;5089930;28;20208;-75
2021/05/18 14:09:39;;;;;;;7.88;6.20;;;16.60;99.90;;;;;;5083701;28;20201;-77
2021/05/18 14:12:06;;;;;;;8.93;5.88;;;16.50;99.90;;;;;;5086277;28;20197;-77
2021/05/18 14:14:33;;;;;;;5.57;5.07;;;16.60;99.90;;;;;;5087323;28;20211;-77
2021/05/18 14:16:59;;;;;;;6.53;5.93;;;16.70;99.90;;;;;;5094900;28;20231;-76
2021/05/18 14:24:55;;;;;;;5.45;5.05;;;17.00;99.90;;;;;;5087805;28;20232;-77
2021/05/18 14:30:03;;;;;;;5.10;4.57;;;16.90;99.90;;;;;;5090149;28;20203;-77
2021/05/18 14:32:29;;;;;;;6.68;5.63;;;17.10;99.90;;;;;;5086543;28;20213;-76
2021/05/18 14:34:55;;;;;;;6.13;5.00;;;17.10;99.90;;;;;;5091998;28;20208;-76
2021/05/18 14:37:23;;;;;;;6.07;5.57;;;17.20;99.90;;;;;;5086962;28;20712;-76
2021/05/18 14:39:58;;;;;;;8.32;6.85;;;17.30;99.90;;;;;;5085341;28;20236;-76
2021/05/18 14:45:12;;;;;;;7.72;6.93;;;17.20;99.90;;;;;;5090957;28;20262;-76
2021/05/18 14:47:50;;;;;;;7.82;6.15;;;17.20;99.90;;;;;;5097823;28;20224;-76
2021/05/18 14:55:48;;;;;;;6.30;5.70;;;17.20;99.90;;;;;;5092322;28;20239;-76
2021/05/18 14:58:15;;;;;;;8.45;4.72;;;17.10;99.90;;;;;;5088710;28;20205;-76
2021/05/18 15:00:42;;;;;;;4.20;3.90;;;16.90;99.90;;;;;;5090441;28;20568;-76
2021/05/18 15:03:09;;;;;;;4.25;3.85;;;16.80;99.90;;;;;;5087409;28;20233;-76
2021/05/18 15:11:13;;;;;;;4.07;2.58;;;16.60;99.90;;;;;;5094295;28;20222;-78
2021/05/18 15:13:40;;;;;;;3.78;3.20;;;16.40;99.90;;;;;;5103772;28;20212;-78
2021/05/18 15:16:07;;;;;;;5.95;2.95;;;16.20;99.90;;;;;;5093650;28;20212;-78
2021/05/18 15:18:34;;;;;;;3.53;3.20;;;16.10;99.90;;;;;;5096061;28;20205;-78
2021/05/18 15:21:01;;;;;;;3.08;2.50;;;15.90;99.90;;;;;;5098603;28;20193;-78
2021/05/18 15:23:28;;;;;;;2.45;2.25;;;15.80;99.90;;;;;;5102275;28;20229;-78
2021/05/18 15:28:51;;;;;;;3.17;2.33;;;15.80;99.90;;;;;;5095533;28;20232;-78
2021/05/18 15:31:22;;;;;;;4.68;2.38;;;15.90;99.90;;;;;;5103958;28;20204;-78
2021/05/18 15:33:49;;;;;;;1.92;1.80;;;15.80;99.90;;;;;;5093872;28;20205;-78
2021/05/18 15:36:16;;;;;;;1.85;1.75;;;15.70;99.90;;;;;;5099943;28;20231;-78
2021/05/18 15:38:45;;;;;;;3.88;1.77;;;15.70;99.90;;;;;;5093405;28;20212;-78
2021/05/18 15:41:12;;;;;;;1.77;1.65;;;15.80;99.90;;;;;;5095376;28;20192;-78
2021/05/18 15:46:21;;;;;;;2.05;1.90;;;15.80;99.90;;;;;;5094504;28;20201;-78
2021/05/18 15:48:47;;;;;;;1.20;1.20;;;15.80;99.90;;;;;;5097666;28;20577;-78
2021/05/18 15:51:14;;;;;;;1.75;1.65;;;15.70;99.90;;;;;;5093082;28;20207;-78
2021/05/18 15:53:40;;;;;;;1.98;1.88;;;15.60;99.90;;;;;;5099655;28;20215;-78
2021/05/18 15:56:08;;;;;;;2.33;2.22;;;15.50;99.90;;;;;;5092878;28;20201;-78
2021/05/18 15:58:35;;;;;;;2.75;2.28;;;15.40;99.90;;;;;;5096601;28;20213;-78
2021/05/18 16:01:02;;;;;;;2.60;2.20;;;15.50;99.90;;;;;;5096599;28;20235;-78
2021/05/18 16:03:37;;;;;;;2.17;1.98;;;15.50;99.90;;;;;;5094300;28;20245;-78
2021/05/18 16:06:04;;;;;;;5.82;2.78;;;15.70;99.90;;;;;;5103565;28;20196;-77
2021/05/18 16:13:56;;;;;;;4.38;3.97;;;16.10;99.90;;;;;;5095022;28;20196;-77
2021/05/18 16:16:23;;;;;;;6.43;4.05;;;16.10;99.90;;;;;;5091734;28;20208;-77
2021/05/18 16:18:50;;;;;;;7.13;4.07;;;16.20;99.90;;;;;;5089907;28;20205;-78
2021/05/18 16:21:18;;;;;;;6.05;4.38;;;16.40;99.90;;;;;;5093950;28;20720;-78
2021/05/18 16:23:47;;;;;;;13.90;6.53;;;16.40;99.90;;;;;;5100676;28;20233;-78
2021/05/18 16:26:14;;;;;;;9.00;6.30;;;16.40;99.90;;;;;;5099003;28;20260;-78
2021/05/18 16:28:41;;;;;;;9.32;5.95;;;16.40;99.90;;;;;;5093924;28;20212;-78
2021/05/18 16:31:08;;;;;;;8.35;5.20;;;16.40;99.90;;;;;;5099979;28;20450;-77
2021/05/18 16:33:35;;;;;;;8.25;4.88;;;16.40;99.90;;;;;;5089176;28;20216;-77
2021/05/18 16:36:04;;;;;;;9.90;5.45;;;16.30;99.90;;;;;;5087797;28;20307;-75
2021/05/18 16:38:31;;;;;;;5.63;4.85;;;16.30;99.90;;;;;;5089241;28;20202;-75
2021/05/18 16:40:58;;;;;;;8.85;5.25;;;16.40;99.90;;;;;;5098881;28;20208;-75
2021/05/18 16:43:25;;;;;;;9.02;4.57;;;16.60;99.90;;;;;;5093848;28;20246;-75
2021/05/18 16:45:53;;;;;;;15.65;4.90;;;16.70;99.90;;;;;;5097472;28;20271;-78
2021/05/18 16:48:20;;;;;;;11.07;4.95;;;16.80;99.90;;;;;;5092075;28;20224;-77
2021/05/18 16:50:47;;;;;;;8.98;4.53;;;16.80;99.90;;;;;;5094831;28;20202;-77
2021/05/18 16:53:15;;;;;;;7.72;4.78;;;16.80;99.90;;;;;;5094210;28;20201;-76
2021/05/18 16:55:42;;;;;;;5.68;4.35;;;16.60;99.90;;;;;;5097922;28;20216;-78
2021/05/18 16:58:08;;;;;;;5.75;3.80;;;16.60;99.90;;;;;;5090899;28;20509;-78
2021/05/18 17:00:35;;;;;;;4.10;3.70;;;16.50;99.90;;;;;;5096181;28;20193;-78
2021/05/18 17:08:25;;;;;;;7.70;4.05;;;16.40;99.90;;;;;;5085635;28;20204;-77
2021/05/18 17:10:51;;;;;;;5.30;3.72;;;16.40;99.90;;;;;;5088410;28;20215;-78
2021/05/18 17:13:18;;;;;;;11.40;5.10;;;16.40;99.90;;;;;;5095399;28;20197;-75
2021/05/18 17:15:44;;;;;;;5.20;4.30;;;16.50;99.90;;;;;;5089061;28;20209;-76
2021/05/18 17:18:11;;;;;;;8.95;4.95;;;16.60;99.90;;;;;;5091258;28;20200;-75
2021/05/18 17:23:18;;;;;;;7.55;4.80;;;16.90;99.90;;;;;;5089903;28;20197;-78
2021/05/18 17:25:46;;;;;;;8.25;4.70;;;16.90;99.90;;;;;;5097751;28;20242;-78
2021/05/18 17:28:12;;;;;;;7.10;4.60;;;17.00;99.90;;;;;;5096269;28;20199;-78
2021/05/18 17:30:39;;;;;;;14.10;5.20;;;16.90;99.90;;;;;;5090984;28;20204;-78
2021/05/18 17:33:05;;;;;;;8.38;4.78;;;16.90;99.90;;;;;;5092607;28;20255;-76
2021/05/18 17:35:39;;;;;;;6.70;5.43;;;16.90;99.90;;;;;;5099698;28;20193;-79
2021/05/18 17:43:36;;;;;;;9.98;6.30;;;16.60;99.90;;;;;;5100874;28;20228;-79
2021/05/18 17:46:13;;;;;;;7.05;5.18;;;16.60;99.90;;;;;;5099009;28;20225;-79
2021/05/18 17:56:57;;;;;;;6.70;5.78;;;16.60;99.90;;;;;;5085486;28;20208;-77
2021/05/18 18:02:05;;;;;;;5.28;4.78;;;16.60;99.90;;;;;;5097655;28;20204;-78
2021/05/18 18:04:32;;;;;;;9.73;5.45;;;16.60;99.90;;;;;;5097026;28;20285;-78
2021/05/18 18:06:58;;;;;;;8.65;5.50;;;16.60;99.90;;;;;;5087572;28;20212;-76
2021/05/18 18:09:24;;;;;;;8.75;5.53;;;16.70;99.90;;;;;;5093750;28;20209;-76
2021/05/18 18:11:52;;;;;;;9.23;4.90;;;16.60;99.90;;;;;;5095951;28;20200;-76
2021/05/18 18:17:01;;;;;;;5.85;4.72;;;16.60;99.90;;;;;;5097135;28;20638;-75
2021/05/18 18:19:28;;;;;;;8.45;5.65;;;16.60;99.90;;;;;;5089317;28;20197;-78
2021/05/18 18:24:38;;;;;;;10.15;5.78;;;16.40;99.90;;;;;;5094795;28;20269;-79
2021/05/18 18:27:11;;;;;;;7.68;5.30;;;16.40;99.90;;;;;;5095316;28;20263;-76
2021/05/18 18:29:40;;;;;;;7.82;5.20;;;16.30;99.90;;;;;;5088114;28;20237;-76
2021/05/18 18:32:07;;;;;;;11.32;5.30;;;16.20;99.90;;;;;;5094949;28;20196;-76
2021/05/18 18:34:34;;;;;;;8.32;5.95;;;16.00;99.90;;;;;;5088286;28;20197;-76
2021/05/18 18:37:02;;;;;;;9.02;5.13;;;16.00;99.90;;;;;;5094117;28;20200;-76
2021/05/18 18:47:41;;;;;;;6.15;5.28;;;15.70;99.90;;;;;;5095555;28;20204;-79
2021/05/18 18:53:02;;;;;;;11.40;5.85;;;15.50;99.90;;;;;;5101045;28;20216;-79
2021/05/18 18:55:36;;;;;;;8.18;6.13;;;15.40;99.90;;;;;;5094949;28;20192;-79
2021/05/18 19:03:31;;;;;;;10.68;5.60;;;15.30;99.90;;;;;;5094267;28;20288;-79
2021/05/18 19:11:40;;;;;;;9.90;6.78;;;15.20;99.90;;;;;;5101695;28;20193;-79
2021/05/18 19:14:07;;;;;;;12.65;6.68;;;15.20;99.90;;;;;;5097322;28;20585;-78
2021/05/18 19:16:49;;;;;;;6.70;6.13;;;15.10;99.90;;;;;;5098481;28;20203;-78
2021/05/18 19:19:17;;;;;;;11.85;6.20;;;15.10;99.90;;;;;;5093819;28;20196;-78
2021/05/18 19:21:44;;;;;;;7.38;6.68;;;15.00;99.90;;;;;;5092482;28;20205;-78